Time;durP1;ratioP1;P1;durP2;ratioP2;P2;SDS_P1;SDS_P2;PMS_P1;PMS_P2;Temp;Humidity;BMP_temperature;BMP_pressure;BME280_temperature;BME280_humidity;BME280_pressure;Samples;Min_cycle;Max_cycle;Signal;HPM_P1;HPM_P2
2022/08/19 00:02:23;;;;;;;;;22.25;18.75;;;;;22.35;52.05;100979.31;5077578;27;46391;-56
2022/08/19 00:04:52;;;;;;;;;24.75;20.00;;;;;22.33;52.53;100974.06;5062795;28;45461;-57
2022/08/19 00:07:20;;;;;;;;;19.25;17.25;;;;;22.29;53.19;100977.94;5064810;28;47515;-57
2022/08/19 00:09:45;;;;;;;;;17.00;16.75;;;;;22.27;52.40;100977.16;5072654;28;45489;-57
2022/08/19 00:12:13;;;;;;;;;23.25;18.50;;;;;22.26;53.16;100974.63;5071436;27;65700;-57
2022/08/19 00:14:40;;;;;;;;;17.25;16.25;;;;;22.25;52.21;100975.56;5073530;27;45310;-56
2022/08/19 00:17:07;;;;;;;;;20.50;17.50;;;;;22.23;52.38;100972.16;5068982;27;46399;-58
2022/08/19 00:19:34;;;;;;;;;17.75;16.00;;;;;22.22;52.09;100976.63;5076922;27;45390;-57
2022/08/19 00:22:00;;;;;;;;;21.75;17.25;;;;;22.21;52.60;100985.59;5071218;27;45405;-57
2022/08/19 00:24:25;;;;;;;;;16.00;14.75;;;;;22.19;52.39;100988.38;5080818;27;45280;-59
2022/08/19 00:26:51;;;;;;;;;19.00;16.25;;;;;22.21;52.36;100990.09;5068891;28;45246;-57
2022/08/19 00:29:19;;;;;;;;;18.25;16.00;;;;;22.21;52.57;100990.09;5080392;27;55240;-56
2022/08/19 00:31:45;;;;;;;;;20.00;16.75;;;;;22.17;53.04;100979.63;5074125;28;45428;-57
2022/08/19 00:34:12;;;;;;;;;17.00;14.25;;;;;22.12;53.00;100975.59;5065804;28;45566;-55
2022/08/19 00:36:39;;;;;;;;;13.50;13.25;;;;;22.08;53.17;100974.97;5078741;27;45447;-55
2022/08/19 00:39:04;;;;;;;;;17.00;14.25;;;;;22.05;52.76;100980.50;5071810;28;45395;-56
2022/08/19 00:41:29;;;;;;;;;16.25;15.50;;;;;22.05;53.16;100985.84;5077524;28;45542;-56
2022/08/19 00:44:09;;;;;;;;;16.50;16.50;;;;;22.03;52.86;100981.56;5063009;28;65610;-59
2022/08/19 00:46:37;;;;;;;;;13.75;13.00;;;;;22.04;52.68;100980.63;5096419;27;47172;-59
2022/08/19 00:49:16;;;;;;;;;14.25;13.50;;;;;22.04;52.35;100983.28;5070290;27;45361;-57
2022/08/19 00:51:44;;;;;;;;;17.75;13.00;;;;;22.04;52.14;100983.28;5072035;28;45245;-56
2022/08/19 00:54:10;;;;;;;;;13.75;13.50;;;;;22.09;52.37;100981.16;5051113;28;45466;-57
2022/08/19 00:56:36;;;;;;;;;15.75;14.50;;;;;22.08;51.93;100979.44;5070486;28;47015;-57
2022/08/19 00:59:08;;;;;;;;;19.00;15.75;;;;;22.10;52.44;100983.69;5076131;27;52699;-58
2022/08/19 01:01:36;;;;;;;;;16.50;14.75;;;;;22.09;51.99;100983.81;5067389;27;45395;-57
2022/08/19 01:04:01;;;;;;;;;20.25;17.75;;;;;22.08;52.49;100982.09;5075976;27;45592;-57
2022/08/19 01:06:27;;;;;;;;;20.75;16.00;;;;;22.08;52.43;100985.63;5070505;28;45917;-57
2022/08/19 01:08:54;;;;;;;;;13.50;12.75;;;;;22.09;52.16;100981.16;5067960;27;72231;-57
2022/08/19 01:11:19;;;;;;;;;16.00;14.00;;;;;22.08;52.24;100976.75;5071478;27;45398;-57
2022/08/19 01:13:45;;;;;;;;;19.00;19.00;;;;;22.07;52.03;100978.59;5078346;27;66385;-57
2022/08/19 01:16:12;;;;;;;;;16.50;12.75;;;;;22.06;52.17;100979.56;5079684;27;46238;-57
2022/08/19 01:18:40;;;;;;;;;15.25;12.00;;;;;22.04;52.15;100973.47;5069542;28;45793;-56
2022/08/19 01:21:11;;;;;;;;;16.75;14.00;;;;;22.04;51.66;100976.13;5080687;27;45476;-57
2022/08/19 01:23:42;;;;;;;;;18.00;16.00;;;;;22.02;52.01;100980.72;5079115;27;45672;-58
2022/08/19 01:26:11;;;;;;;;;16.75;11.75;;;;;21.98;52.72;100977.44;5073214;28;45496;-56
2022/08/19 01:28:36;;;;;;;;;13.75;11.25;;;;;21.97;52.38;100977.53;5067846;28;45347;-56
2022/08/19 01:31:02;;;;;;;;;13.50;11.75;;;;;21.92;52.12;100977.88;5073121;27;67194;-56
2022/08/19 01:33:30;;;;;;;;;12.25;12.00;;;;;21.91;52.31;100977.97;5070970;27;45438;-57
2022/08/19 01:36:04;;;;;;;;;13.50;13.00;;;;;21.88;52.46;100984.38;5079637;28;45533;-59
2022/08/19 01:38:31;;;;;;;;;16.75;14.00;;;;;21.89;52.35;100985.25;5069028;27;45707;-56
2022/08/19 01:40:57;;;;;;;;;13.00;11.25;;;;;21.88;52.12;100989.69;5070087;27;45412;-56
2022/08/19 01:43:22;;;;;;;;;17.00;14.00;;;;;21.89;52.30;100987.91;5078553;27;45524;-56
2022/08/19 01:45:47;;;;;;;;;14.25;11.25;;;;;21.87;51.93;100980.00;5078583;27;56905;-57
2022/08/19 01:48:13;;;;;;;;;14.00;13.00;;;;;21.87;52.26;100985.34;5067148;27;64694;-56
2022/08/19 01:50:39;;;;;;;;;14.25;12.50;;;;;21.86;52.26;100991.63;5074215;28;45420;-57
2022/08/19 01:53:07;;;;;;;;;14.00;13.25;;;;;21.84;52.22;100990.88;5077398;28;69685;-57
2022/08/19 01:55:35;;;;;;;;;12.50;10.75;;;;;21.80;52.46;100992.91;5077805;27;46174;-56
2022/08/19 01:58:02;;;;;;;;;14.75;13.25;;;;;21.78;52.10;100994.84;5071909;27;45377;-56
2022/08/19 02:00:29;;;;;;;;;11.75;11.75;;;;;21.77;51.81;100993.13;5069476;27;45457;-57
2022/08/19 02:02:55;;;;;;;;;13.50;11.00;;;;;21.75;52.30;100994.19;5074501;27;45311;-57
2022/08/19 02:05:21;;;;;;;;;14.00;10.50;;;;;21.73;52.78;100993.44;5073420;27;56872;-58
2022/08/19 02:07:47;;;;;;;;;11.50;10.25;;;;;21.74;52.62;100997.81;5074446;27;45364;-58
2022/08/19 02:10:17;;;;;;;;;19.50;13.00;;;;;21.73;52.58;100991.63;5073016;27;45302;-55
2022/08/19 02:12:43;;;;;;;;;14.00;12.00;;;;;21.71;52.62;100990.03;5074858;27;45405;-57
2022/08/19 02:15:09;;;;;;;;;18.50;14.75;;;;;21.69;52.67;100991.94;5077713;27;46960;-57
2022/08/19 02:17:34;;;;;;;;;15.00;12.75;;;;;21.68;53.04;100992.91;5070577;27;45386;-57
2022/08/19 02:20:00;;;;;;;;;14.75;14.50;;;;;21.65;52.83;100985.13;5088668;27;45394;-57
2022/08/19 02:22:26;;;;;;;;;18.00;13.25;;;;;21.65;53.31;100987.78;5074687;28;45366;-58
2022/08/19 02:24:52;;;;;;;;;14.25;12.75;;;;;21.64;52.68;100994.06;5071445;27;74723;-58
2022/08/19 02:27:17;;;;;;;;;15.25;14.00;;;;;21.64;52.68;100989.63;5065804;27;45427;-57
2022/08/19 02:29:43;;;;;;;;;13.00;12.25;;;;;21.66;53.07;100992.19;5062881;28;45321;-57
2022/08/19 02:32:08;;;;;;;;;13.75;13.25;;;;;21.67;53.21;100997.38;5067732;27;70107;-56
2022/08/19 02:34:34;;;;;;;;;14.00;13.00;;;;;21.63;53.32;101000.38;5063627;28;46490;-58
2022/08/19 02:37:00;;;;;;;;;14.75;13.75;;;;;21.61;52.95;101006.66;5079587;27;45642;-58
2022/08/19 02:39:26;;;;;;;;;18.75;16.00;;;;;21.63;53.51;101005.69;5069772;27;51714;-59
2022/08/19 02:41:51;;;;;;;;;16.50;16.50;;;;;21.62;53.44;100999.53;5077747;27;45512;-57
2022/08/19 02:44:17;;;;;;;;;18.75;14.50;;;;;21.62;53.05;100999.53;5079436;27;46051;-57
2022/08/19 02:46:45;;;;;;;;;17.25;15.00;;;;;21.66;53.49;100997.50;5069309;27;45415;-57
2022/08/19 02:49:11;;;;;;;;;17.75;14.00;;;;;21.68;53.17;100991.09;5069452;27;45379;-58
2022/08/19 02:51:42;;;;;;;;;17.75;16.25;;;;;21.69;53.57;100994.59;5072628;27;45383;-57
2022/08/19 02:54:09;;;;;;;;;15.75;12.50;;;;;21.68;53.38;100988.44;5065477;28;45336;-57
2022/08/19 02:56:36;;;;;;;;;17.00;14.00;;;;;21.68;52.81;100995.59;5072808;27;45963;-57
2022/08/19 02:59:05;;;;;;;;;14.00;11.00;;;;;21.67;53.31;100991.22;5073808;28;45451;-57
2022/08/19 03:01:32;;;;;;;;;14.50;14.25;;;;;21.68;53.01;100995.59;5079666;27;45505;-57
2022/08/19 03:03:59;;;;;;;;;17.25;14.00;;;;;21.67;53.37;100996.53;5078954;27;45455;-57
2022/08/19 03:06:25;;;;;;;;;17.25;14.50;;;;;21.67;53.17;100996.53;5079405;27;45759;-56
2022/08/19 03:08:52;;;;;;;;;15.75;14.75;;;;;21.65;53.54;100995.78;5069334;27;45222;-57
2022/08/19 03:11:23;;;;;;;;;15.00;12.25;;;;;21.64;54.53;101002.06;5063756;27;45240;-58
2022/08/19 03:13:50;;;;;;;;;19.50;15.50;;;;;21.60;53.46;100994.31;5066592;28;46194;-58
2022/08/19 03:16:16;;;;;;;;;14.25;14.25;;;;;21.59;54.13;101000.59;5078084;28;45772;-57
2022/08/19 03:18:41;;;;;;;;;18.75;14.50;;;;;21.60;53.66;100996.09;5079270;27;45414;-57
2022/08/19 03:21:07;;;;;;;;;16.25;13.25;;;;;21.63;53.87;100995.91;5072185;27;45385;-57
2022/08/19 03:23:32;;;;;;;;;13.75;13.25;;;;;21.64;53.67;100994.06;5064841;28;58394;-58
2022/08/19 03:25:58;;;;;;;;;14.00;11.50;;;;;21.61;54.07;100988.00;5077887;28;46027;-58
2022/08/19 03:28:23;;;;;;;;;16.75;15.00;;;;;21.63;53.92;100987.06;5078305;27;45161;-57
2022/08/19 03:31:01;;;;;;;;;12.00;10.75;;;;;21.60;54.42;100990.78;5075836;27;45244;-57
2022/08/19 03:33:28;;;;;;;;;13.75;11.75;;;;;21.59;54.27;100991.75;5077138;27;46357;-57
2022/08/19 03:36:09;;;;;;;;;11.50;11.00;;;;;21.58;54.18;100982.03;5069231;27;45276;-57
2022/08/19 03:38:37;;;;;;;;;14.25;12.50;;;;;21.58;54.01;100980.25;5074083;28;45229;-57
2022/08/19 03:41:09;;;;;;;;;14.75;12.25;;;;;21.60;53.69;100986.31;5061236;28;45415;-57
2022/08/19 03:43:37;;;;;;;;;16.00;10.75;;;;;21.59;54.42;100994.41;5072030;28;46230;-57
2022/08/19 03:46:08;;;;;;;;;13.50;10.00;;;;;21.59;53.87;100992.59;5072145;28;45767;-57
2022/08/19 03:48:34;;;;;;;;;11.25;11.00;;;;;21.59;54.58;100991.75;5062084;28;45274;-57
2022/08/19 03:51:00;;;;;;;;;11.50;11.25;;;;;21.57;54.43;100991.84;5075031;28;45399;-57
2022/08/19 03:53:29;;;;;;;;;14.75;11.00;;;;;21.57;54.33;100991.84;5067542;27;45220;-55
2022/08/19 03:55:55;;;;;;;;;14.75;10.50;;;;;21.57;54.04;100996.34;5076117;27;45915;-56
2022/08/19 03:58:21;;;;;;;;;13.75;10.00;;;;;21.56;54.68;100998.13;5076218;27;45450;-57
2022/08/19 04:00:46;;;;;;;;;8.25;8.25;;;;;21.56;54.40;100991.94;5089240;27;45466;-57
2022/08/19 04:03:12;;;;;;;;;9.75;9.50;;;;;21.56;54.24;101003.44;5070293;27;71377;-57
2022/08/19 04:05:37;;;;;;;;;9.75;6.00;;;;;21.58;54.18;100996.22;5071833;27;69080;-58
2022/08/19 04:08:05;;;;;;;;;12.25;11.00;;;;;21.63;54.03;100993.22;5070574;27;45494;-57
2022/08/19 04:10:34;;;;;;;;;10.50;9.00;;;;;21.65;54.66;100990.47;5075236;27;45283;-57
2022/08/19 04:13:00;;;;;;;;;13.00;11.00;;;;;21.65;54.63;100990.47;5075146;27;46166;-58
2022/08/19 04:15:25;;;;;;;;;10.25;9.00;;;;;21.65;54.57;100991.31;5077211;27;61366;-59
2022/08/19 04:17:50;;;;;;;;;9.25;8.00;;;;;21.65;53.85;100980.66;5087526;27;67712;-57
2022/08/19 04:20:16;;;;;;;;;5.75;4.75;;;;;21.64;53.95;100986.09;5078122;27;64080;-57
2022/08/19 04:22:42;;;;;;;;;10.25;9.00;;;;;21.64;54.14;100981.63;5064465;28;46111;-57
2022/08/19 04:25:08;;;;;;;;;13.25;8.75;;;;;21.63;54.34;100987.91;5078202;27;45321;-58
2022/08/19 04:27:33;;;;;;;;;10.75;7.25;;;;;21.64;54.36;100986.09;5071042;27;45320;-58
2022/08/19 04:29:59;;;;;;;;;10.50;8.75;;;;;21.64;55.09;100992.28;5089623;27;45326;-58
2022/08/19 04:32:24;;;;;;;;;8.25;7.75;;;;;21.63;54.55;100993.22;5072051;27;60679;-58
2022/08/19 04:34:49;;;;;;;;;9.75;8.00;;;;;21.63;54.12;100993.22;5079747;27;59144;-58
2022/08/19 04:37:15;;;;;;;;;9.00;7.75;;;;;21.62;54.14;100999.53;5074388;27;61713;-58
2022/08/19 04:42:39;;;;;;;;;9.75;6.75;;;;;21.63;54.45;100995.06;5081533;27;45258;-57
2022/08/19 04:45:09;;;;;;;;;6.25;6.00;;;;;21.64;54.39;100992.28;5076591;27;45363;-57
2022/08/19 04:47:35;;;;;;;;;7.00;6.00;;;;;21.66;54.12;100998.34;5071307;28;45400;-58
2022/08/19 04:50:00;;;;;;;;;8.25;5.75;;;;;21.66;54.71;101002.84;5074955;27;45280;-57
2022/08/19 04:52:25;;;;;;;;;7.25;6.00;;;;;21.69;54.42;101011.47;5076446;27;69916;-58
2022/08/19 04:54:51;;;;;;;;;6.50;6.00;;;;;21.73;54.43;101012.94;5073278;27;64147;-58
2022/08/19 04:57:16;;;;;;;;;6.25;5.50;;;;;21.76;54.19;101014.53;5065193;28;64575;-57
2022/08/19 04:59:41;;;;;;;;;7.50;7.00;;;;;21.79;54.30;101024.97;5076894;27;73198;-57
2022/08/19 05:02:08;;;;;;;;;5.25;5.00;;;;;21.76;54.66;101023.41;5081254;27;45901;-56
2022/08/19 05:04:35;;;;;;;;;5.00;5.00;;;;;21.71;54.72;101022.84;5081507;27;45744;-56
2022/08/19 05:07:01;;;;;;;;;6.75;4.25;;;;;21.70;54.96;101023.81;5080866;27;45378;-56
2022/08/19 05:09:27;;;;;;;;;7.25;5.00;;;;;21.70;55.13;101028.28;5066112;27;45322;-57
2022/08/19 05:11:53;;;;;;;;;4.25;3.75;;;;;21.67;54.91;101031.16;5065369;28;47359;-58
2022/08/19 05:14:19;;;;;;;;;4.50;4.00;;;;;21.64;55.10;101026.91;5077307;27;45387;-58
2022/08/19 05:16:44;;;;;;;;;5.00;5.00;;;;;21.65;54.69;101028.59;5080376;27;45287;-58
2022/08/19 05:24:38;;;;;;;;;4.50;4.50;;;;;21.61;55.00;101033.28;5063700;28;45328;-57
2022/08/19 05:27:05;;;;;;;;;4.75;4.75;;;;;21.58;54.55;101030.84;5066794;28;45220;-58
2022/08/19 05:29:31;;;;;;;;;5.00;5.00;;;;;21.60;55.05;101033.38;5073799;27;45270;-57
2022/08/19 05:31:57;;;;;;;;;4.00;4.00;;;;;21.60;54.78;101036.03;5070439;27;46296;-57
2022/08/19 05:34:26;;;;;;;;;4.75;4.50;;;;;21.60;54.93;101033.38;5070161;27;45415;-57
2022/08/19 05:36:56;;;;;;;;;5.75;5.25;;;;;21.61;55.11;101041.28;5068157;27;45440;-57
2022/08/19 05:39:24;;;;;;;;;1.00;1.00;;;;;21.64;55.27;101037.56;5069070;28;45371;-57
2022/08/19 05:41:52;;;;;;;;;6.50;3.50;;;;;21.65;54.93;101039.25;5065696;27;47463;-58
2022/08/19 05:44:19;;;;;;;;;5.00;5.00;;;;;21.64;55.47;101053.53;5073772;27;45320;-57
2022/08/19 05:46:48;;;;;;;;;5.50;4.00;;;;;21.64;54.81;101045.56;5069583;27;45330;-57
2022/08/19 05:49:15;;;;;;;;;5.00;3.00;;;;;21.66;55.41;101037.47;5085684;27;45624;-57
2022/08/19 05:51:42;;;;;;;;;6.00;5.00;;;;;21.67;54.49;101033.81;5063456;27;45475;-57
2022/08/19 05:54:08;;;;;;;;;5.00;5.00;;;;;21.65;55.10;101036.59;5063922;28;45211;-57
2022/08/19 05:56:37;;;;;;;;;8.25;5.25;;;;;21.65;55.37;101031.25;5076391;27;45461;-57
2022/08/19 05:59:09;;;;;;;;;7.50;5.25;;;;;21.66;55.47;101034.78;5080482;27;45645;-58
2022/08/19 06:01:35;;;;;;;;;6.00;6.00;;;;;21.66;54.97;101040.97;5069552;28;46380;-59
2022/08/19 06:04:01;;;;;;;;;6.00;5.50;;;;;21.68;55.02;101044.38;5065233;27;45979;-58
2022/08/19 06:06:26;;;;;;;;;6.00;4.75;;;;;21.68;55.51;101055.03;5069748;27;45382;-58
2022/08/19 06:08:52;;;;;;;;;7.25;6.00;;;;;21.70;55.80;101053.09;5066957;27;64869;-57
2022/08/19 06:11:35;;;;;;;;;7.50;5.00;;;;;21.69;54.79;101056.75;5095031;27;70818;-58
2022/08/19 06:14:03;;;;;;;;;6.50;6.00;;;;;21.69;55.30;101059.41;5071191;27;45774;-55
2022/08/19 06:16:31;;;;;;;;;5.25;5.00;;;;;21.68;55.21;101062.19;5072700;27;45464;-57
2022/08/19 06:18:59;;;;;;;;;5.25;4.75;;;;;21.67;55.44;101055.13;5079913;27;45597;-57
2022/08/19 06:21:27;;;;;;;;;3.00;2.25;;;;;21.66;55.63;101058.78;5078358;27;46324;-57
2022/08/19 06:23:52;;;;;;;;;6.00;4.25;;;;;21.64;55.35;101060.66;5077110;27;45506;-58
2022/08/19 06:26:19;;;;;;;;;5.75;5.00;;;;;21.64;55.33;101066.84;5073944;27;45359;-57
2022/08/19 06:28:48;;;;;;;;;3.00;3.00;;;;;21.67;55.69;101074.63;5080469;27;45438;-59
2022/08/19 06:31:19;;;;;;;;;5.25;4.25;;;;;21.66;55.79;101070.25;5074662;27;46142;-57
2022/08/19 06:33:45;;;;;;;;;6.00;5.50;;;;;21.66;55.84;101066.75;5078214;28;45321;-57
2022/08/19 06:36:27;;;;;;;;;5.00;5.00;;;;;21.63;55.91;101066.97;5079055;27;45310;-57
2022/08/19 06:38:53;;;;;;;;;5.00;5.00;;;;;21.62;55.48;101068.78;5063987;27;45366;-56
2022/08/19 06:41:19;;;;;;;;;5.00;3.00;;;;;21.62;55.83;101074.09;5074704;27;46294;-56
2022/08/19 06:43:44;;;;;;;;;3.75;3.75;;;;;21.64;56.01;101080.19;5068411;27;45356;-56
2022/08/19 06:46:12;;;;;;;;;3.50;3.50;;;;;21.66;55.66;101083.59;5067201;27;45385;-56
2022/08/19 06:48:38;;;;;;;;;3.75;3.75;;;;;21.70;55.75;101090.41;5076981;27;45234;-57
2022/08/19 06:51:05;;;;;;;;;3.25;3.00;;;;;21.73;56.21;101081.38;5080477;27;46413;-57
2022/08/19 06:53:31;;;;;;;;;4.25;4.25;;;;;21.76;56.30;101087.34;5068389;28;45607;-56
2022/08/19 06:56:00;;;;;;;;;3.75;3.00;;;;;21.78;56.26;101079.25;5078064;27;45538;-56
2022/08/19 06:58:25;;;;;;;;;3.50;3.50;;;;;21.79;56.05;101078.25;5068051;28;45418;-57
2022/08/19 07:00:51;;;;;;;;;3.00;3.00;;;;;21.80;55.59;101086.16;5089139;27;45334;-57
2022/08/19 07:03:17;;;;;;;;;3.50;1.75;;;;;21.83;55.68;101082.41;5079082;27;45327;-57
2022/08/19 07:05:43;;;;;;;;;0.75;0.75;;;;;21.87;55.92;101088.38;5078613;27;45308;-56
2022/08/19 07:08:09;;;;;;;;;2.50;2.50;;;;;21.87;56.34;101091.03;5062508;27;45232;-56
2022/08/19 07:10:36;;;;;;;;;2.00;2.00;;;;;21.87;55.66;101089.25;5075494;27;46260;-56
2022/08/19 07:13:02;;;;;;;;;3.00;3.00;;;;;21.88;55.91;101090.09;5063221;27;45418;-57
2022/08/19 07:15:27;;;;;;;;;3.00;2.00;;;;;21.90;55.51;101098.84;5068956;27;45259;-56
2022/08/19 07:17:52;;;;;;;;;3.25;3.25;;;;;21.92;55.95;101102.25;5087971;27;70570;-56
2022/08/19 07:20:18;;;;;;;;;4.25;4.00;;;;;21.94;55.51;101097.69;5078079;27;72121;-56
2022/08/19 07:22:45;;;;;;;;;5.75;3.00;;;;;21.94;55.67;101103.00;5072672;28;45355;-57
2022/08/19 07:25:10;;;;;;;;;2.25;2.25;;;;;21.92;55.58;101097.78;5074091;28;45509;-57
2022/08/19 07:27:36;;;;;;;;;7.00;4.00;;;;;21.93;55.62;101096.81;5071018;27;45338;-57
2022/08/19 07:30:04;;;;;;;;;5.50;4.50;;;;;21.94;56.17;101093.19;5075190;28;47081;-56
2022/08/19 07:32:30;;;;;;;;;4.00;3.00;;;;;21.90;55.94;101097.03;5068545;28;45430;-56
2022/08/19 07:34:55;;;;;;;;;2.25;2.00;;;;;21.90;56.23;101098.84;5067344;28;45382;-56
2022/08/19 07:37:21;;;;;;;;;5.25;4.00;;;;;21.85;56.27;101093.84;5069476;27;58700;-56
2022/08/19 07:39:46;;;;;;;;;4.75;4.00;;;;;21.88;56.05;101095.44;5067179;27;68465;-57
2022/08/19 07:42:13;;;;;;;;;2.75;2.75;;;;;21.89;56.00;101095.31;5069837;27;68878;-57
2022/08/19 07:44:39;;;;;;;;;8.00;4.00;;;;;21.89;56.31;101094.47;5067462;28;45407;-57
2022/08/19 07:47:05;;;;;;;;;4.75;4.00;;;;;21.90;56.64;101096.16;5070512;28;45546;-58
2022/08/19 07:49:30;;;;;;;;;3.00;2.00;;;;;21.89;56.71;101087.34;5066377;28;45499;-58
2022/08/19 07:52:01;;;;;;;;;3.00;3.00;;;;;21.91;55.89;101097.88;5061038;28;45501;-57
2022/08/19 07:54:28;;;;;;;;;2.75;2.75;;;;;21.90;56.28;101096.16;5074083;28;45517;-57
2022/08/19 07:56:54;;;;;;;;;7.00;4.00;;;;;21.93;56.27;101090.63;5063221;28;45498;-57
2022/08/19 07:59:20;;;;;;;;;3.00;2.25;;;;;21.93;56.44;101091.47;5077753;27;45464;-57
2022/08/19 08:01:46;;;;;;;;;3.25;2.25;;;;;21.94;56.46;101087.03;5072738;28;45683;-57
2022/08/19 08:09:43;;;;;;;;;2.00;2.00;;;;;22.00;56.41;101089.25;5066388;28;45698;-57
2022/08/19 08:12:13;;;;;;;;;3.00;3.00;;;;;22.03;55.79;101090.84;5077352;27;45222;-57
2022/08/19 08:14:46;;;;;;;;;4.25;2.00;;;;;22.09;56.02;101096.59;5085051;27;45413;-57
2022/08/19 08:17:15;;;;;;;;;2.00;2.00;;;;;22.12;56.13;101092.88;5071378;27;45321;-57
2022/08/19 08:19:41;;;;;;;;;2.25;2.00;;;;;22.13;55.61;101099.91;5072948;28;45411;-57
2022/08/19 08:22:07;;;;;;;;;4.75;3.25;;;;;22.15;55.43;101101.53;5080430;27;45571;-57
2022/08/19 08:24:33;;;;;;;;;1.50;1.50;;;;;22.21;55.76;101104.72;5082547;27;45298;-57
2022/08/19 08:27:00;;;;;;;;;3.75;2.00;;;;;22.28;55.41;101108.69;5072909;27;45518;-57
2022/08/19 08:29:27;;;;;;;;;2.25;1.00;;;;;22.32;55.39;101104.84;5087582;27;45410;-58
2022/08/19 08:31:53;;;;;;;;;3.00;1.75;;;;;22.37;55.34;101113.38;5072968;27;45776;-57
2022/08/19 08:34:19;;;;;;;;;2.25;2.00;;;;;22.40;55.48;101112.28;5075527;28;45328;-57
2022/08/19 08:36:45;;;;;;;;;2.00;2.00;;;;;22.43;55.00;101118.25;5071568;27;45302;-57
2022/08/19 08:39:19;;;;;;;;;1.50;1.50;;;;;22.44;54.95;101111.13;5071778;28;45294;-58
2022/08/19 08:41:53;;;;;;;;;2.50;1.50;;;;;22.46;55.31;101110.03;5076336;27;45360;-58
2022/08/19 08:44:27;;;;;;;;;2.25;1.75;;;;;22.50;54.68;101114.19;5072421;28;45529;-57
2022/08/19 08:47:00;;;;;;;;;2.00;1.25;;;;;22.54;54.99;101106.81;5071714;27;45457;-58
2022/08/19 08:49:35;;;;;;;;;2.00;2.00;;;;;22.60;54.81;101102.88;5071420;27;46334;-56
2022/08/19 08:52:11;;;;;;;;;2.00;2.00;;;;;22.64;54.77;101118.53;5066201;28;45654;-56
2022/08/19 08:54:46;;;;;;;;;3.25;1.25;;;;;22.67;54.82;101109.47;5079087;27;45418;-57
2022/08/19 08:57:19;;;;;;;;;1.25;1.00;;;;;22.72;54.83;101123.34;5071270;27;45488;-57
2022/08/19 08:59:51;;;;;;;;;4.25;2.50;;;;;22.75;54.54;101125.75;5070862;27;46415;-57
2022/08/19 09:02:17;;;;;;;;;1.25;1.00;;;;;22.78;54.63;101116.69;5074262;27;46517;-57
2022/08/19 09:04:42;;;;;;;;;2.00;2.00;;;;;22.79;54.28;101116.59;5074886;27;45415;-58
2022/08/19 09:07:20;;;;;;;;;3.00;1.75;;;;;22.81;54.80;101116.47;5076418;28;45296;-57
2022/08/19 09:09:50;;;;;;;;;1.75;1.75;;;;;22.83;54.33;101117.22;5074838;28;46062;-57
2022/08/19 09:12:39;;;;;;;;;3.00;3.00;;;;;22.85;54.17;101115.28;5076191;27;45224;-57
2022/08/19 09:15:07;;;;;;;;;7.50;7.00;;;;;22.89;54.05;101114.09;5081369;27;45440;-57
2022/08/19 09:17:38;;;;;;;;;4.75;4.25;;;;;22.92;54.44;101114.72;5067974;27;45431;-58
2022/08/19 09:20:09;;;;;;;;;6.50;6.00;;;;;22.97;54.15;101105.53;5075825;27;45451;-56
2022/08/19 09:22:38;;;;;;;;;10.75;9.50;;;;;23.01;54.44;101097.19;5071941;27;45327;-55
2022/08/19 09:25:06;;;;;;;;;8.50;5.25;;;;;23.07;54.36;101111.91;5081025;27;45276;-56
2022/08/19 09:27:37;;;;;;;;;3.00;3.00;;;;;23.11;53.98;101106.25;5080823;27;45228;-53
2022/08/19 09:30:03;;;;;;;;;2.25;1.25;;;;;23.17;54.18;101112.09;5069474;28;46329;-56
2022/08/19 09:32:30;;;;;;;;;2.50;2.50;;;;;23.18;53.54;101114.66;5066713;27;45719;-56
2022/08/19 09:34:57;;;;;;;;;2.50;2.50;;;;;23.20;53.58;101107.38;5078241;27;45332;-56
2022/08/19 09:37:24;;;;;;;;;2.50;1.75;;;;;23.25;53.78;101107.06;5071839;27;45445;-55
2022/08/19 09:39:49;;;;;;;;;2.25;2.25;;;;;23.29;53.75;101104.03;5079278;27;46939;-55
2022/08/19 09:42:14;;;;;;;;;3.25;1.25;;;;;23.35;53.72;101101.88;5075815;28;45392;-55
2022/08/19 09:44:40;;;;;;;;;3.75;3.00;;;;;23.39;53.64;101096.19;5070181;28;45292;-55
2022/08/19 09:47:06;;;;;;;;;3.00;3.00;;;;;23.45;53.58;101102.88;5078111;27;45660;-55
2022/08/19 09:49:32;;;;;;;;;2.50;1.25;;;;;23.49;53.15;101105.19;5072133;27;46218;-55
2022/08/19 09:51:58;;;;;;;;;3.25;2.00;;;;;23.54;53.35;101094.16;5064227;28;45295;-56
2022/08/19 09:54:23;;;;;;;;;5.00;3.00;;;;;23.60;53.10;101095.50;5079086;28;45251;-56
2022/08/19 09:56:49;;;;;;;;;3.75;2.00;;;;;23.65;53.16;101104.03;5072876;27;45291;-57
2022/08/19 09:59:15;;;;;;;;;8.00;6.00;;;;;23.70;53.06;101110.72;5078266;27;47124;-56
2022/08/19 10:01:41;;;;;;;;;11.75;10.75;;;;;23.75;53.02;101105.03;5076746;27;45252;-57
2022/08/19 10:04:09;;;;;;;;;15.25;12.00;;;;;23.80;52.75;101115.38;5077116;27;46342;-57
2022/08/19 10:06:37;;;;;;;;;6.25;3.00;;;;;23.84;52.76;101106.19;5071011;28;45312;-56
2022/08/19 10:09:06;;;;;;;;;4.75;4.25;;;;;23.87;52.65;101105.94;5069607;27;46339;-57
2022/08/19 10:11:32;;;;;;;;;11.75;9.00;;;;;23.92;52.30;101106.44;5072498;27;45668;-57
2022/08/19 10:13:57;;;;;;;;;15.75;12.25;;;;;24.00;52.44;101101.34;5070569;28;45407;-57
2022/08/19 10:16:24;;;;;;;;;31.00;28.00;;;;;24.09;52.18;101105.13;5063567;28;45355;-56
2022/08/19 10:18:49;;;;;;;;;8.25;7.25;;;;;24.15;52.26;101103.78;5077220;28;48211;-57
2022/08/19 10:21:16;;;;;;;;;4.75;4.00;;;;;24.21;51.76;101097.97;5064279;28;45337;-56
2022/08/19 10:23:44;;;;;;;;;5.50;2.00;;;;;24.27;51.73;101097.47;5077458;28;45328;-56
2022/08/19 10:26:12;;;;;;;;;4.25;3.00;;;;;24.33;51.48;101098.78;5079404;27;45489;-55
2022/08/19 10:28:38;;;;;;;;;6.00;2.50;;;;;24.38;51.65;101093.94;5078991;27;46317;-55
2022/08/19 10:31:26;;;;;;;;;3.25;2.50;;;;;24.42;51.36;101093.56;5070187;27;45421;-56
2022/08/19 10:33:57;;;;;;;;;3.50;3.00;;;;;24.48;51.31;101094.06;5078785;27;45342;-56
2022/08/19 10:36:25;;;;;;;;;11.50;8.75;;;;;24.55;51.17;101092.63;5070594;28;45391;-57
2022/08/19 10:38:52;;;;;;;;;6.75;6.25;;;;;24.60;51.22;101093.09;5072251;27;45432;-57
2022/08/19 10:41:22;;;;;;;;;1.00;1.00;;;;;24.64;51.23;101086.53;5066026;28;45581;-57
2022/08/19 10:43:47;;;;;;;;;5.75;2.00;;;;;24.72;51.12;101086.75;5063309;28;45430;-56
2022/08/19 10:46:14;;;;;;;;;4.50;4.00;;;;;24.88;50.74;101088.16;5048308;28;45449;-56
2022/08/19 10:48:41;;;;;;;;;2.50;1.25;;;;;24.97;50.23;101084.75;5070914;28;45353;-56
2022/08/19 10:53:51;;;;;;;;;5.25;5.25;;;;;25.11;50.37;101088.97;5075123;27;45453;-56
2022/08/19 10:59:03;;;;;;;;;2.00;2.00;;;;;25.13;50.09;101090.53;5077667;28;45453;-56
2022/08/19 11:01:30;;;;;;;;;7.25;3.00;;;;;25.13;49.77;101090.53;5060889;28;45707;-56
2022/08/19 11:03:57;;;;;;;;;4.00;1.00;;;;;25.12;49.83;101091.50;5084700;27;45287;-57
2022/08/19 11:06:23;;;;;;;;;4.50;1.00;;;;;25.10;49.87;101092.63;5078018;27;45534;-56
2022/08/19 11:08:48;;;;;;;;;1.25;1.25;;;;;25.08;50.05;101089.22;5066531;27;45352;-57
2022/08/19 11:11:13;;;;;;;;;11.25;4.75;;;;;25.05;49.83;101087.63;5072689;27;45309;-54
2022/08/19 11:13:41;;;;;;;;;9.00;4.50;;;;;25.06;49.69;101083.16;5067600;28;45434;-56
2022/08/19 11:16:09;;;;;;;;;4.25;1.25;;;;;25.08;50.12;101090.06;5063712;27;45415;-57
2022/08/19 11:18:40;;;;;;;;;2.00;2.00;;;;;25.09;50.02;101080.19;5064846;28;46306;-57
2022/08/19 11:21:12;;;;;;;;;6.00;4.00;;;;;25.11;49.75;101078.25;5062170;28;45674;-57
2022/08/19 11:23:37;;;;;;;;;2.25;1.50;;;;;25.12;49.55;101077.25;5075852;28;45342;-55
2022/08/19 11:26:03;;;;;;;;;4.00;2.00;;;;;25.14;49.87;101081.53;5077742;27;67368;-56
2022/08/19 11:28:28;;;;;;;;;2.00;2.00;;;;;25.16;49.66;101078.69;5061518;28;46620;-57
2022/08/19 11:30:53;;;;;;;;;2.00;2.00;;;;;25.15;49.69;101071.66;5074006;27;45342;-56
2022/08/19 11:33:19;;;;;;;;;2.00;2.00;;;;;25.15;49.67;101077.84;5069790;28;45843;-56
2022/08/19 11:35:44;;;;;;;;;4.00;2.00;;;;;25.13;49.70;101071.78;5064370;28;69131;-55
2022/08/19 11:38:10;;;;;;;;;5.75;5.00;;;;;25.11;49.71;101075.59;5069208;28;46974;-56
2022/08/19 11:40:36;;;;;;;;;4.00;4.00;;;;;25.07;49.52;101074.97;5082671;27;45315;-55